شیراز, ایران

08:07 PM IRST on اكتبر 30, 2014 (GMT +0330)
Shahid Dastghaib International | Change Station
CLOSE
Current Station
Airport
Location: Shiraz,
Elevation: 4869 ft
Nearby Weather Stations

Elev 4869 ft 29.54 °N, 52.59 °E | Updated 7 minutes ago

Partly Cloudy
ابرهاى پراكنده
64 °F
Feels Like 64 °F
N
5
باد متغير باد from شمال غربی

امروز
High -- | Low -- °F
--% Chance of Precip.
دیروز
High -- | Low -- °F
Precip. -- در
6:11 AM 5:15 PM
Waxing Crescent, 45% visible
فشار 30.09 در
ديد 6.2 مايل، ميل (در برابر كيلومتر
ابری Few 3500 ft
قطره شبنم 36 °F
رطوبت 34%
بارش باران 0.00 در
برف عمیق Not available.
مادون قرمز 0 out of 12
Pollen Not available.
تمیزی هوا Not available.
Flu Activity Not available.
METAR OISS 301630Z 32004KT 9999 FEW035 18/02 Q1019 A3010

More Conditions Fewer Conditions

فشار 30.09 در
ديد 6.2 مايل، ميل (در برابر كيلومتر
ابری Few 3500 ft
قطره شبنم 36 °F
رطوبت 34%
بارش باران 0.00 در
برف عمیق Not available.
مادون قرمز 0 out of 12
Pollen Not available.
تمیزی هوا Not available.
Flu Activity Not available.
METAR OISS 301630Z 32004KT 9999 FEW035 18/02 Q1019 A3010

More Conditions Fewer Conditions

10-Day Weather Forecast

Almanac

ستاره شناسی

Oct. 30, 2014 Rise Set
وقت حقیقی
تاریک و روشن اجتماعی
تاریک روشن دریایی
شفق و فلق نجومی
ماه
میزان روشنایی روز
طول روز
Tomorrow will be .
, % of the Moon is Illuminated

Today's Extremes

Country Highs Country Lows

Community

WunderPhotos

Upload Photos

1,766,399 photos uploaded!

WunderBlogs® & News

Nearby

تمیزی هوا

  تمیزی هوا AQ Index آلاینده
Not available.

عمق برف

Station Depth Elevation

Earthquake Activity

شهر Distance Mag. Time & Date
Minimum magnitude displayed is 2.5.

Coastal Water Temperatures

منطقه درجه حرارت

Nearby Weather Stations